Martin, Georgia
Current Conditions -  °F | °C
As of 7:55 PM on Tuesday 21 Oct 2014 (Local Time) from KTOC Reporting Station
Clear Clear  
Wind Chill: 63°   Ceiling: Unl
Heat Index: 63°   Visibility: 10mi
Dew Point: 44°   Wind: 7mph
Humidity: 49%   Direction: 260°W
Pressure: 29.96"   Gusts: NA
Location:  34.49°N, 83.18°W
Report Text: KTOC 212355Z AUTO 26006KT 10SM CLR 17/07 A2996 RMK AO2 T01730065 10237 20172
Loading
Personal Weather Stations






























Interactive Weather Map
Tropical Storm Tracking
New forecast layout! Learn more

10-Day Weather Forecast

Advertisements
Track Severe Weather on mobile